Time;durP1;ratioP1;P1;durP2;ratioP2;P2;SDS_P1;SDS_P2;PMS_P1;PMS_P2;Temp;Humidity;BMP_temperature;BMP_pressure;BME280_temperature;BME280_humidity;BME280_pressure;Samples;Min_cycle;Max_cycle;Signal;HPM_P1;HPM_P2
2022/10/07 00:01:08;;;;;;;7.83;2.77;;;12.00;99.90;;;;;;5019895;28;20450;-86
2022/10/07 00:03:35;;;;;;;5.33;2.67;;;12.20;99.90;;;;;;5005628;28;20465;-85
2022/10/07 00:06:09;;;;;;;4.73;2.70;;;12.20;99.90;;;;;;5008782;28;20577;-86
2022/10/07 00:08:38;;;;;;;2.60;2.10;;;12.20;99.90;;;;;;5024163;28;20485;-86
2022/10/07 00:11:07;;;;;;;7.53;2.60;;;12.20;99.90;;;;;;5036112;28;20450;-86
2022/10/07 00:13:37;;;;;;;5.53;3.30;;;12.10;99.90;;;;;;5020118;28;20561;-86
2022/10/07 00:16:07;;;;;;;9.13;3.10;;;12.00;99.90;;;;;;5037588;28;20478;-86
2022/10/07 00:18:35;;;;;;;5.60;2.60;;;11.90;99.90;;;;;;5021297;28;20446;-84
2022/10/07 00:21:10;;;;;;;6.17;3.43;;;11.90;99.90;;;;;;5040928;28;20438;-84
2022/10/07 00:23:43;;;;;;;7.50;3.93;;;11.90;99.90;;;;;;5004846;28;20442;-82
2022/10/07 00:26:20;;;;;;;6.07;2.77;;;11.90;99.90;;;;;;4971694;28;20494;-84
2022/10/07 00:28:47;;;;;;;2.83;2.50;;;11.80;99.90;;;;;;5005072;28;20434;-83
2022/10/07 00:31:20;;;;;;;5.37;3.00;;;11.80;99.90;;;;;;5004927;28;20454;-82
2022/10/07 00:33:47;;;;;;;9.50;3.80;;;11.70;99.90;;;;;;5001520;28;20630;-82
2022/10/07 00:36:18;;;;;;;2.17;2.00;;;11.60;99.90;;;;;;5013322;28;20525;-81
2022/10/07 00:38:49;;;;;;;3.80;2.30;;;11.50;99.90;;;;;;5001530;28;20450;-83
2022/10/07 00:41:24;;;;;;;7.63;3.53;;;11.50;99.90;;;;;;5003891;28;20497;-84
2022/10/07 00:43:51;;;;;;;3.83;2.67;;;11.60;99.90;;;;;;5003972;28;20460;-83
2022/10/07 00:46:38;;;;;;;7.50;2.90;;;11.70;99.90;;;;;;5004025;28;20450;-85
2022/10/07 00:49:09;;;;;;;4.40;2.67;;;11.60;99.90;;;;;;5021564;28;20457;-84
2022/10/07 00:51:37;;;;;;;4.60;3.00;;;11.60;99.90;;;;;;5022518;28;20450;-84
2022/10/07 00:54:10;;;;;;;4.37;2.83;;;11.60;99.90;;;;;;5016677;28;20528;-84
2022/10/07 00:56:39;;;;;;;7.90;2.73;;;11.50;99.90;;;;;;5003759;28;20800;-85
2022/10/07 00:59:06;;;;;;;4.87;2.80;;;11.50;99.90;;;;;;5004124;28;21058;-84
2022/10/07 01:01:33;;;;;;;7.13;2.77;;;11.40;99.90;;;;;;5021785;28;20473;-83
2022/10/07 01:04:00;;;;;;;4.17;2.70;;;11.40;99.90;;;;;;5020303;28;20485;-83
2022/10/07 01:06:27;;;;;;;5.90;3.10;;;11.50;99.90;;;;;;5002031;28;20466;-85
2022/10/07 01:08:54;;;;;;;5.77;2.67;;;11.50;99.90;;;;;;5003591;28;20446;-84
2022/10/07 01:11:55;;;;;;;4.87;3.27;;;11.50;99.90;;;;;;5021959;28;20956;-85
2022/10/07 01:14:42;;;;;;;6.50;2.90;;;11.50;99.90;;;;;;5000880;28;20475;-85
2022/10/07 01:17:37;;;;;;;5.43;2.53;;;11.60;99.90;;;;;;5003874;28;20466;-83
2022/10/07 01:20:20;;;;;;;3.07;2.70;;;11.50;99.90;;;;;;5020939;28;20835;-83
2022/10/07 01:23:12;;;;;;;2.83;2.30;;;11.40;99.90;;;;;;5003483;28;20520;-84
2022/10/07 01:26:05;;;;;;;7.30;3.20;;;11.30;99.90;;;;;;5008015;28;20929;-84
2022/10/07 01:28:46;;;;;;;6.67;2.27;;;11.10;99.90;;;;;;4972097;28;20902;-84
2022/10/07 01:31:17;;;;;;;4.47;2.60;;;11.10;99.90;;;;;;5001682;28;20501;-83
2022/10/07 01:33:45;;;;;;;4.30;3.07;;;11.10;99.90;;;;;;5005241;28;20454;-83
2022/10/07 01:36:16;;;;;;;5.20;3.53;;;11.10;99.90;;;;;;5003729;28;20471;-85
2022/10/07 01:38:49;;;;;;;5.17;2.90;;;11.20;99.90;;;;;;4997744;28;20447;-84
2022/10/07 01:41:18;;;;;;;4.50;2.50;;;11.10;99.90;;;;;;5023407;28;20497;-85
2022/10/07 01:43:46;;;;;;;4.87;2.97;;;11.10;99.90;;;;;;5005541;28;20438;-84
2022/10/07 01:46:19;;;;;;;8.57;2.90;;;11.00;99.90;;;;;;5005410;28;20552;-83
2022/10/07 01:48:46;;;;;;;3.03;2.37;;;10.90;99.90;;;;;;5005183;28;20477;-84
2022/10/07 01:51:14;;;;;;;12.73;2.90;;;10.90;99.90;;;;;;5008792;28;20450;-84
2022/10/07 01:54:09;;;;;;;7.60;2.47;;;10.90;99.90;;;;;;5030678;28;20454;-83
2022/10/07 01:56:55;;;;;;;8.00;2.97;;;11.00;99.90;;;;;;5016443;28;20604;-86
2022/10/07 01:59:39;;;;;;;5.20;3.10;;;10.90;99.90;;;;;;5034353;28;20454;-85
2022/10/07 02:02:33;;;;;;;6.50;2.50;;;10.90;99.90;;;;;;5016105;28;20497;-86
2022/10/07 02:05:13;;;;;;;10.33;3.37;;;10.90;99.90;;;;;;5036941;28;20453;-85
2022/10/07 02:08:14;;;;;;;3.70;2.53;;;10.80;99.90;;;;;;5020632;28;20477;-83
2022/10/07 02:10:57;;;;;;;5.97;2.67;;;10.80;99.90;;;;;;5035616;28;20565;-85
2022/10/07 02:13:39;;;;;;;4.37;3.17;;;10.80;99.90;;;;;;5006687;28;20481;-84
2022/10/07 02:16:25;;;;;;;4.27;3.23;;;10.80;99.90;;;;;;5005945;28;20544;-84
2022/10/07 02:18:53;;;;;;;3.50;2.97;;;10.80;99.90;;;;;;5022957;28;20508;-84
2022/10/07 02:21:25;;;;;;;5.77;2.80;;;10.80;99.90;;;;;;5025709;28;20469;-83
2022/10/07 02:23:55;;;;;;;5.93;2.90;;;10.90;99.90;;;;;;5010741;28;20450;-83
2022/10/07 02:26:23;;;;;;;3.97;2.27;;;10.80;99.90;;;;;;5008177;28;20501;-85
2022/10/07 02:28:52;;;;;;;5.67;3.40;;;10.90;99.90;;;;;;5004140;28;20487;-83
2022/10/07 02:31:23;;;;;;;5.30;3.20;;;11.00;99.90;;;;;;5011614;28;20442;-84
2022/10/07 02:33:52;;;;;;;6.63;3.00;;;11.10;99.90;;;;;;5022361;28;20457;-84
2022/10/07 02:36:27;;;;;;;10.53;3.37;;;11.10;99.90;;;;;;4993725;28;20945;-83
2022/10/07 02:38:55;;;;;;;5.43;3.00;;;11.20;99.90;;;;;;4999341;28;20461;-84
2022/10/07 02:41:49;;;;;;;3.50;2.90;;;11.20;99.90;;;;;;5017234;28;20446;-85
2022/10/07 02:44:36;;;;;;;3.43;2.80;;;11.30;99.90;;;;;;4984266;28;20983;-84
2022/10/07 02:47:16;;;;;;;5.07;2.40;;;11.20;99.90;;;;;;5015944;28;20605;-83
2022/10/07 02:49:48;;;;;;;3.73;2.63;;;11.10;99.90;;;;;;5004541;28;20504;-83
2022/10/07 02:52:18;;;;;;;7.03;2.70;;;10.90;99.90;;;;;;5016882;28;21015;-83
2022/10/07 02:54:47;;;;;;;5.53;3.53;;;10.90;99.90;;;;;;5002310;28;20473;-83
2022/10/07 02:57:17;;;;;;;3.50;2.40;;;10.90;99.90;;;;;;4997965;28;20446;-83
2022/10/07 02:59:47;;;;;;;7.03;2.60;;;10.80;99.90;;;;;;4998333;28;20473;-84
2022/10/07 03:02:26;;;;;;;4.63;2.83;;;10.70;99.90;;;;;;4996208;28;20862;-84
2022/10/07 03:04:56;;;;;;;5.63;3.23;;;10.60;99.90;;;;;;4991753;28;20463;-84
2022/10/07 03:07:24;;;;;;;4.83;2.40;;;10.50;99.90;;;;;;5001521;28;20478;-84
2022/10/07 03:09:52;;;;;;;8.63;3.73;;;10.50;99.90;;;;;;5007593;28;20458;-84
2022/10/07 03:12:18;;;;;;;8.40;3.30;;;10.60;99.90;;;;;;5006870;28;20481;-85
2022/10/07 03:14:48;;;;;;;3.53;2.20;;;10.50;99.90;;;;;;5026922;28;20478;-84
2022/10/07 03:17:16;;;;;;;9.03;3.23;;;10.50;99.90;;;;;;5006610;28;20455;-84
2022/10/07 03:19:43;;;;;;;5.47;2.97;;;10.50;99.90;;;;;;5008057;28;20450;-86
2022/10/07 03:22:10;;;;;;;4.17;3.10;;;10.40;99.90;;;;;;5024623;28;20462;-85
2022/10/07 03:24:36;;;;;;;6.67;3.40;;;10.40;99.90;;;;;;5025007;28;20481;-85
2022/10/07 03:27:06;;;;;;;5.53;3.10;;;10.40;99.90;;;;;;5024672;28;20508;-85
2022/10/07 03:29:34;;;;;;;3.83;2.87;;;10.40;99.90;;;;;;5022222;28;20469;-85
2022/10/07 03:32:01;;;;;;;5.50;2.80;;;10.40;99.90;;;;;;5006837;28;20462;-83
2022/10/07 03:34:29;;;;;;;4.23;2.50;;;10.40;99.90;;;;;;5022745;28;20485;-84
2022/10/07 03:36:56;;;;;;;6.90;2.80;;;10.40;99.90;;;;;;5004444;28;20442;-83
2022/10/07 03:39:22;;;;;;;6.27;3.17;;;10.30;99.90;;;;;;5017831;28;20510;-83
2022/10/07 03:41:50;;;;;;;4.70;3.10;;;10.20;99.90;;;;;;5014086;28;20972;-84
2022/10/07 03:44:18;;;;;;;4.20;2.60;;;10.30;99.90;;;;;;5009676;28;20505;-84
2022/10/07 03:46:48;;;;;;;4.80;2.97;;;10.20;99.90;;;;;;5023627;28;20447;-85
2022/10/07 03:49:14;;;;;;;5.40;3.43;;;10.30;99.90;;;;;;5023451;28;20486;-83
2022/10/07 03:51:41;;;;;;;7.87;2.70;;;10.30;99.90;;;;;;5006065;28;20454;-83
2022/10/07 03:54:08;;;;;;;4.27;2.70;;;10.30;99.90;;;;;;5022360;28;20451;-84
2022/10/07 03:56:35;;;;;;;5.07;3.07;;;10.20;99.90;;;;;;5006459;28;20442;-84
2022/10/07 03:59:01;;;;;;;5.63;2.47;;;10.20;99.90;;;;;;5023176;28;20458;-83
2022/10/07 04:01:30;;;;;;;7.10;3.50;;;10.10;99.90;;;;;;5002087;28;20471;-83
2022/10/07 04:04:00;;;;;;;5.87;3.27;;;10.00;99.90;;;;;;5000354;28;20454;-84
2022/10/07 04:06:28;;;;;;;4.07;2.40;;;10.00;99.90;;;;;;5006004;28;20490;-83
2022/10/07 04:08:55;;;;;;;6.03;3.00;;;10.10;99.90;;;;;;5005415;28;21144;-84
2022/10/07 04:11:23;;;;;;;4.30;3.10;;;10.10;99.90;;;;;;5001688;28;20454;-84
2022/10/07 04:13:50;;;;;;;9.90;2.37;;;10.00;99.90;;;;;;5021223;28;20517;-83
2022/10/07 04:16:17;;;;;;;5.63;3.00;;;10.00;99.90;;;;;;5019161;28;20482;-83
2022/10/07 04:18:45;;;;;;;7.80;3.30;;;9.90;99.90;;;;;;4999544;28;20532;-84
2022/10/07 04:21:11;;;;;;;8.70;3.03;;;10.00;99.90;;;;;;5002781;28;20483;-83
2022/10/07 04:23:40;;;;;;;4.80;2.60;;;9.90;99.90;;;;;;5004299;28;20490;-85
2022/10/07 04:26:08;;;;;;;4.97;2.90;;;9.80;99.90;;;;;;5003996;28;20509;-83
2022/10/07 04:28:36;;;;;;;8.37;2.63;;;9.90;99.90;;;;;;4999773;28;20486;-84
2022/10/07 04:31:05;;;;;;;5.30;2.90;;;9.90;99.90;;;;;;5005411;28;20457;-85
2022/10/07 04:33:31;;;;;;;6.60;3.10;;;9.90;99.90;;;;;;5006244;28;20542;-82
2022/10/07 04:36:07;;;;;;;6.83;3.10;;;10.00;99.90;;;;;;5020832;28;20491;-83
2022/10/07 04:38:34;;;;;;;5.00;2.87;;;9.90;99.90;;;;;;5005928;28;20458;-83
2022/10/07 04:41:05;;;;;;;5.77;3.77;;;9.90;99.90;;;;;;5013151;28;20477;-84
2022/10/07 04:43:33;;;;;;;5.50;3.23;;;9.90;99.90;;;;;;5016058;28;20466;-83
2022/10/07 04:46:08;;;;;;;5.00;2.93;;;10.00;99.90;;;;;;5006430;28;20596;-84
2022/10/07 04:48:35;;;;;;;5.67;3.40;;;10.00;99.90;;;;;;5022588;28;20539;-84
2022/10/07 04:51:07;;;;;;;7.23;3.23;;;9.90;99.90;;;;;;5007019;28;20485;-83
2022/10/07 04:53:36;;;;;;;7.10;3.40;;;9.80;99.90;;;;;;5004528;28;20454;-86
2022/10/07 04:56:03;;;;;;;11.87;2.93;;;9.90;99.90;;;;;;5023184;28;21214;-86
2022/10/07 04:58:31;;;;;;;6.73;3.50;;;9.80;99.90;;;;;;5004494;28;20469;-85
2022/10/07 05:01:00;;;;;;;3.87;3.20;;;9.80;99.90;;;;;;5005966;28;20481;-84
2022/10/07 05:03:29;;;;;;;8.70;2.63;;;9.80;99.90;;;;;;5002201;28;20524;-84
2022/10/07 05:06:02;;;;;;;9.97;4.10;;;9.70;99.90;;;;;;5012484;28;20495;-83
2022/10/07 05:08:32;;;;;;;8.60;3.13;;;9.80;99.90;;;;;;5023678;28;20477;-83
2022/10/07 05:11:02;;;;;;;6.33;3.30;;;9.80;99.90;;;;;;5002065;28;20451;-84
2022/10/07 05:13:29;;;;;;;6.53;3.60;;;9.60;99.90;;;;;;4998874;28;20882;-85
2022/10/07 05:15:59;;;;;;;4.60;3.30;;;9.70;99.90;;;;;;5005970;28;20469;-84
2022/10/07 05:18:27;;;;;;;3.90;2.70;;;9.60;99.90;;;;;;5022574;28;20450;-84
2022/10/07 05:20:55;;;;;;;5.23;2.80;;;9.60;99.90;;;;;;4999981;28;20463;-84
2022/10/07 05:23:24;;;;;;;4.00;2.93;;;9.50;99.90;;;;;;5019411;28;20528;-84
2022/10/07 05:26:03;;;;;;;5.97;3.17;;;9.70;99.90;;;;;;5004259;28;20566;-82
2022/10/07 05:28:30;;;;;;;8.00;3.13;;;9.70;99.90;;;;;;5020790;28;20482;-83
2022/10/07 05:31:01;;;;;;;7.43;4.33;;;9.60;99.90;;;;;;4998987;28;20455;-83
2022/10/07 05:33:30;;;;;;;9.23;3.30;;;9.60;99.90;;;;;;5003247;28;20458;-83
2022/10/07 05:35:58;;;;;;;5.90;2.30;;;9.60;99.90;;;;;;5001070;28;20475;-85
2022/10/07 05:38:27;;;;;;;4.20;3.23;;;9.60;99.90;;;;;;4991405;28;20465;-85
2022/10/07 05:40:58;;;;;;;7.03;3.10;;;9.50;99.90;;;;;;5003799;28;20470;-84
2022/10/07 05:43:26;;;;;;;4.73;3.33;;;9.50;99.90;;;;;;5021841;28;20457;-83
2022/10/07 05:46:06;;;;;;;6.33;3.60;;;9.40;99.90;;;;;;5021219;28;20582;-85
2022/10/07 05:48:36;;;;;;;9.50;3.37;;;9.60;99.90;;;;;;5015386;28;20521;-85
2022/10/07 05:51:21;;;;;;;6.37;3.00;;;9.60;99.90;;;;;;5019340;28;20446;-83
2022/10/07 05:53:54;;;;;;;4.90;2.57;;;9.60;99.90;;;;;;5017537;28;20505;-85
2022/10/07 05:56:21;;;;;;;3.33;2.60;;;9.50;99.90;;;;;;5014343;28;20455;-84
2022/10/07 05:58:49;;;;;;;6.07;2.93;;;9.60;99.90;;;;;;5020970;28;20458;-84
2022/10/07 06:01:19;;;;;;;3.60;2.87;;;9.60;99.90;;;;;;5021986;28;20474;-82
2022/10/07 06:03:51;;;;;;;9.47;3.23;;;9.60;99.90;;;;;;5004077;28;20462;-84
2022/10/07 06:06:19;;;;;;;4.03;3.27;;;9.60;99.90;;;;;;5023316;28;20460;-84
2022/10/07 06:08:52;;;;;;;5.67;2.70;;;9.70;99.90;;;;;;5003295;28;20478;-85
2022/10/07 06:14:11;;;;;;;5.50;3.27;;;9.90;99.90;;;;;;5026443;28;20525;-84
2022/10/07 06:16:43;;;;;;;6.37;3.10;;;9.80;99.90;;;;;;5011555;28;20454;-83
2022/10/07 06:19:21;;;;;;;6.20;2.97;;;9.80;99.90;;;;;;5011628;28;20465;-80
2022/10/07 06:22:21;;;;;;;4.97;2.90;;;9.70;99.90;;;;;;5009217;28;20450;-85
2022/10/07 06:28:46;;;;;;;6.13;3.20;;;9.60;99.90;;;;;;5000990;28;20501;-85
2022/10/07 06:31:28;;;;;;;6.03;2.77;;;9.70;99.90;;;;;;5036294;28;20492;-84
2022/10/07 06:33:55;;;;;;;6.20;3.30;;;10.00;99.90;;;;;;5022160;28;20521;-84
2022/10/07 06:36:25;;;;;;;6.30;3.00;;;10.00;99.90;;;;;;5022760;28;20506;-85
2022/10/07 06:38:54;;;;;;;6.20;3.60;;;10.10;99.90;;;;;;5018363;28;20509;-84
2022/10/07 06:41:23;;;;;;;9.33;3.83;;;10.20;99.90;;;;;;5011153;28;20585;-84
2022/10/07 06:43:57;;;;;;;6.87;3.47;;;10.10;99.90;;;;;;5009687;28;20995;-84
2022/10/07 06:46:24;;;;;;;11.10;4.83;;;10.00;99.90;;;;;;5024896;28;20452;-84
2022/10/07 06:48:51;;;;;;;11.63;4.63;;;10.10;99.90;;;;;;5026227;28;20477;-84
2022/10/07 06:51:19;;;;;;;6.33;3.60;;;10.20;99.90;;;;;;5008773;28;20441;-84
2022/10/07 06:53:53;;;;;;;9.70;3.37;;;10.20;99.90;;;;;;5009207;28;20465;-82
2022/10/07 06:56:20;;;;;;;8.50;3.50;;;10.30;99.90;;;;;;5030893;28;20492;-85
2022/10/07 06:58:54;;;;;;;6.77;3.77;;;10.30;99.90;;;;;;5014218;28;20458;-83
2022/10/07 07:01:23;;;;;;;5.57;3.60;;;10.40;99.90;;;;;;5007132;28;20474;-84
2022/10/07 07:03:53;;;;;;;5.67;3.90;;;10.40;99.90;;;;;;5009641;28;20537;-84
2022/10/07 07:06:24;;;;;;;5.20;3.07;;;10.90;99.90;;;;;;5021453;28;20442;-85
2022/10/07 07:08:53;;;;;;;5.07;3.23;;;12.90;99.90;;;;;;5022434;28;20474;-85
2022/10/07 07:11:36;;;;;;;4.60;3.50;;;14.70;98.80;;;;;;5022434;28;20469;-86
2022/10/07 07:14:04;;;;;;;6.90;3.80;;;15.80;94.50;;;;;;5015332;28;20529;-83
2022/10/07 07:16:37;;;;;;;7.17;3.83;;;16.30;93.00;;;;;;5007004;28;20528;-84
2022/10/07 07:19:15;;;;;;;5.37;3.47;;;17.40;91.30;;;;;;5007316;28;20450;-84
2022/10/07 07:21:47;;;;;;;5.07;4.20;;;18.20;85.40;;;;;;5008426;28;20505;-85
2022/10/07 07:24:15;;;;;;;7.30;2.97;;;18.10;85.30;;;;;;5009561;28;20505;-84
2022/10/07 07:26:42;;;;;;;8.27;3.50;;;18.70;82.50;;;;;;5008121;28;20513;-83
2022/10/07 07:29:11;;;;;;;6.47;3.27;;;18.90;79.70;;;;;;5011727;28;20478;-82
2022/10/07 07:31:39;;;;;;;8.07;3.80;;;18.40;81.00;;;;;;5005776;28;20447;-83
2022/10/07 07:34:10;;;;;;;6.23;3.93;;;18.40;80.90;;;;;;5003561;28;20458;-85
2022/10/07 07:36:41;;;;;;;5.57;3.50;;;18.20;79.70;;;;;;5024007;28;20484;-84
2022/10/07 07:39:14;;;;;;;5.93;3.33;;;16.50;83.70;;;;;;5002445;28;20454;-84
2022/10/07 07:41:45;;;;;;;5.63;3.07;;;15.40;90.40;;;;;;5006907;28;20462;-86
2022/10/07 07:44:15;;;;;;;8.73;3.37;;;15.30;92.20;;;;;;5006357;28;20462;-84
2022/10/07 07:46:47;;;;;;;5.57;3.60;;;15.20;92.20;;;;;;5002746;28;20960;-84
2022/10/07 07:49:14;;;;;;;11.27;4.10;;;14.60;92.60;;;;;;5006431;28;20478;-83
2022/10/07 07:51:42;;;;;;;6.43;3.60;;;14.00;93.90;;;;;;5000542;28;20457;-85
2022/10/07 07:54:11;;;;;;;5.80;3.70;;;13.50;95.20;;;;;;4999827;28;20462;-84
2022/10/07 07:56:38;;;;;;;6.37;3.87;;;13.10;96.20;;;;;;5017518;28;20455;-83
2022/10/07 07:59:06;;;;;;;5.87;3.60;;;12.80;97.20;;;;;;4998798;28;20537;-82
2022/10/07 08:01:34;;;;;;;7.03;4.10;;;12.80;97.60;;;;;;4997991;28;20446;-84
2022/10/07 08:04:03;;;;;;;5.80;3.80;;;12.80;97.90;;;;;;4997443;28;20990;-83
2022/10/07 08:06:30;;;;;;;7.50;3.50;;;12.70;98.30;;;;;;4994960;28;20457;-84
2022/10/07 08:08:58;;;;;;;9.47;3.90;;;12.70;98.30;;;;;;4997774;28;20481;-84
2022/10/07 08:11:27;;;;;;;6.37;3.63;;;12.50;98.50;;;;;;4999798;28;20813;-84
2022/10/07 08:13:58;;;;;;;5.97;4.50;;;12.70;98.80;;;;;;4999573;28;20645;-84
2022/10/07 08:16:36;;;;;;;7.20;4.33;;;12.60;99.00;;;;;;4999029;28;20450;-84
2022/10/07 08:19:04;;;;;;;7.57;3.87;;;12.70;99.20;;;;;;5000870;28;20454;-84
2022/10/07 08:21:43;;;;;;;9.10;3.80;;;12.90;98.90;;;;;;5001847;28;20482;-84
2022/10/07 08:24:23;;;;;;;4.30;3.60;;;12.90;98.90;;;;;;5018183;28;21025;-84
2022/10/07 08:26:57;;;;;;;4.20;3.23;;;12.90;98.90;;;;;;5000344;28;20520;-83
2022/10/07 08:29:29;;;;;;;5.00;4.07;;;13.00;98.80;;;;;;5014684;28;20481;-83
2022/10/07 08:31:55;;;;;;;5.10;3.53;;;13.00;98.90;;;;;;5015156;28;21039;-83
2022/10/07 08:34:23;;;;;;;7.13;5.57;;;12.90;99.00;;;;;;4994574;28;20497;-83
2022/10/07 08:36:55;;;;;;;8.40;4.70;;;12.90;99.40;;;;;;4995364;28;21018;-83
2022/10/07 08:39:30;;;;;;;8.60;3.90;;;13.00;99.60;;;;;;4999935;28;20482;-82
2022/10/07 08:42:12;;;;;;;5.77;3.73;;;13.10;99.20;;;;;;4997481;28;20461;-82
2022/10/07 08:44:46;;;;;;;8.20;4.17;;;13.20;99.20;;;;;;5017344;28;20537;-81
2022/10/07 08:47:16;;;;;;;11.47;4.70;;;13.30;99.20;;;;;;4999495;28;20454;-83
2022/10/07 08:50:28;;;;;;;4.47;3.80;;;13.50;98.90;;;;;;5019315;28;20480;-83
2022/10/07 08:53:22;;;;;;;12.87;4.60;;;13.60;98.40;;;;;;5002541;28;20453;-83
2022/10/07 08:56:05;;;;;;;6.20;4.37;;;13.50;98.70;;;;;;5002250;28;20885;-82
2022/10/07 08:58:39;;;;;;;8.73;5.10;;;13.60;98.50;;;;;;5018473;28;20854;-83
2022/10/07 09:01:34;;;;;;;6.13;4.20;;;13.60;98.60;;;;;;5001736;28;20454;-83
2022/10/07 09:04:01;;;;;;;7.83;4.10;;;13.60;98.80;;;;;;5009114;28;20955;-83
2022/10/07 09:06:37;;;;;;;9.93;4.87;;;13.60;99.10;;;;;;5012267;28;20463;-83
2022/10/07 09:09:14;;;;;;;8.93;3.77;;;13.70;99.10;;;;;;5016026;28;20474;-83
2022/10/07 09:11:44;;;;;;;5.23;4.00;;;13.90;99.00;;;;;;5005230;28;20504;-84
2022/10/07 09:14:24;;;;;;;7.53;4.37;;;14.00;98.60;;;;;;5019548;28;20454;-85
2022/10/07 09:16:55;;;;;;;6.93;4.73;;;14.10;98.60;;;;;;5020209;28;20461;-82
2022/10/07 09:19:30;;;;;;;10.47;4.50;;;14.10;98.10;;;;;;5004241;28;20927;-83
2022/10/07 09:22:05;;;;;;;6.17;3.50;;;14.10;98.20;;;;;;5003107;28;20488;-84
2022/10/07 09:24:33;;;;;;;6.40;4.10;;;14.30;98.10;;;;;;5020732;28;20991;-83
2022/10/07 09:27:06;;;;;;;5.80;4.87;;;14.30;98.10;;;;;;5020818;28;21001;-83
2022/10/07 09:29:38;;;;;;;5.93;3.93;;;14.40;98.00;;;;;;5004017;28;20470;-82
2022/10/07 09:32:05;;;;;;;6.20;4.20;;;14.50;98.10;;;;;;5004464;28;20459;-82
2022/10/07 09:34:32;;;;;;;8.77;3.67;;;14.60;97.80;;;;;;5004860;28;20474;-82
2022/10/07 09:37:19;;;;;;;5.63;3.63;;;15.20;97.60;;;;;;5007044;28;20445;-84
2022/10/07 09:39:49;;;;;;;6.47;4.03;;;16.70;94.90;;;;;;5006065;28;20457;-82
2022/10/07 09:42:34;;;;;;;10.50;3.73;;;18.30;91.70;;;;;;5020642;28;20521;-84
2022/10/07 09:45:16;;;;;;;5.37;3.20;;;19.50;86.80;;;;;;4994544;28;20470;-84
2022/10/07 09:47:53;;;;;;;6.30;3.60;;;20.00;82.90;;;;;;5017233;28;20450;-85
2022/10/07 09:50:39;;;;;;;4.70;3.80;;;20.50;80.40;;;;;;5005661;28;20481;-84
2022/10/07 09:53:31;;;;;;;6.63;3.40;;;20.70;79.30;;;;;;5002515;28;20510;-84
2022/10/07 09:56:03;;;;;;;5.80;3.33;;;20.80;78.10;;;;;;5028390;28;20551;-85
2022/10/07 09:58:35;;;;;;;6.27;3.17;;;21.10;76.70;;;;;;5004705;28;20446;-84
2022/10/07 10:01:15;;;;;;;7.17;3.60;;;21.30;75.40;;;;;;5002412;28;20553;-83
2022/10/07 10:03:48;;;;;;;6.00;3.10;;;20.80;76.60;;;;;;5011593;28;20533;-85
2022/10/07 10:06:21;;;;;;;7.10;3.33;;;20.30;78.90;;;;;;5004228;28;20479;-84
2022/10/07 10:08:55;;;;;;;7.07;3.00;;;19.50;81.90;;;;;;5001041;28;20851;-82
2022/10/07 10:11:34;;;;;;;7.00;3.50;;;19.10;84.50;;;;;;5015987;28;20450;-83
2022/10/07 10:14:35;;;;;;;4.83;2.70;;;18.70;86.50;;;;;;5020191;28;20450;-84
2022/10/07 10:17:03;;;;;;;4.77;2.60;;;18.30;88.20;;;;;;4997023;28;20458;-84
2022/10/07 10:19:33;;;;;;;6.20;3.33;;;18.20;90.00;;;;;;5022265;28;20539;-84
2022/10/07 10:22:02;;;;;;;5.30;2.80;;;18.00;89.90;;;;;;5005098;28;20492;-83
2022/10/07 10:27:25;;;;;;;7.73;2.93;;;17.80;91.10;;;;;;5019215;28;20458;-82
2022/10/07 10:29:56;;;;;;;7.03;2.83;;;17.80;90.90;;;;;;5002911;28;20909;-83
2022/10/07 10:33:00;;;;;;;10.30;3.47;;;17.80;90.90;;;;;;4991560;28;20477;-82
2022/10/07 10:35:30;;;;;;;5.63;2.57;;;17.90;90.90;;;;;;5012753;28;20485;-83
2022/10/07 10:38:17;;;;;;;8.60;3.00;;;17.80;90.70;;;;;;5018280;28;20446;-83
2022/10/07 10:41:34;;;;;;;7.03;2.40;;;17.80;91.00;;;;;;4995470;28;20458;-84
2022/10/07 10:44:24;;;;;;;9.27;3.03;;;17.80;90.80;;;;;;4981070;28;20514;-84
2022/10/07 10:47:16;;;;;;;6.23;3.30;;;18.00;90.50;;;;;;5019071;28;20466;-85
2022/10/07 10:50:25;;;;;;;5.07;2.40;;;18.10;90.40;;;;;;5000401;28;20483;-84
2022/10/07 10:53:13;;;;;;;5.57;2.20;;;18.10;90.20;;;;;;5008933;28;20467;-83
2022/10/07 10:55:55;;;;;;;5.80;2.90;;;18.10;89.40;;;;;;5037746;28;20472;-86
2022/10/07 10:59:08;;;;;;;3.77;1.60;;;18.20;87.80;;;;;;5020698;28;20438;-83
2022/10/07 11:02:14;;;;;;;4.67;2.30;;;18.10;88.60;;;;;;5024534;28;20521;-83
2022/10/07 11:04:58;;;;;;;9.60;2.23;;;18.20;87.70;;;;;;5012663;28;20458;-83
2022/10/07 11:08:01;;;;;;;11.40;2.93;;;18.30;86.30;;;;;;5019079;28;20489;-82
2022/10/07 11:10:40;;;;;;;4.60;1.70;;;18.40;85.60;;;;;;5022167;28;20462;-83
2022/10/07 11:13:33;;;;;;;3.97;1.97;;;18.70;84.10;;;;;;5032547;28;20469;-84
2022/10/07 11:16:18;;;;;;;3.87;1.80;;;18.60;83.90;;;;;;5010094;28;20505;-83
2022/10/07 11:19:03;;;;;;;6.40;2.23;;;18.50;83.70;;;;;;5009798;28;20465;-82
2022/10/07 11:21:52;;;;;;;7.77;2.10;;;18.70;82.40;;;;;;5008087;28;20454;-82
2022/10/07 11:24:33;;;;;;;6.90;1.83;;;18.90;82.20;;;;;;5008173;28;20462;-83
2022/10/07 11:27:24;;;;;;;5.17;1.53;;;18.90;80.30;;;;;;5008808;28;20462;-82
2022/10/07 11:30:02;;;;;;;2.87;1.17;;;18.60;80.20;;;;;;5028436;28;20536;-84
2022/10/07 11:33:10;;;;;;;4.40;1.27;;;18.50;80.00;;;;;;5020164;28;20411;-84
2022/10/07 11:35:46;;;;;;;3.57;1.20;;;19.10;76.60;;;;;;5030895;28;20502;-83
2022/10/07 11:38:19;;;;;;;3.70;1.70;;;19.10;75.60;;;;;;5013624;28;20441;-82
2022/10/07 11:40:56;;;;;;;6.47;1.90;;;19.30;75.00;;;;;;5005479;28;20442;-83
2022/10/07 11:43:31;;;;;;;9.63;1.93;;;18.90;76.20;;;;;;5024188;28;20450;-83
2022/10/07 11:46:30;;;;;;;6.83;1.53;;;19.00;77.20;;;;;;5017249;28;20510;-82
2022/10/07 11:49:28;;;;;;;5.33;1.47;;;19.20;74.80;;;;;;5004567;28;20959;-81
2022/10/07 11:52:03;;;;;;;4.63;1.40;;;19.10;74.60;;;;;;5005935;28;20454;-84
2022/10/07 11:54:52;;;;;;;3.63;1.40;;;19.20;74.00;;;;;;5013229;28;20469;-84
2022/10/07 11:57:23;;;;;;;5.70;1.70;;;19.40;72.80;;;;;;5003469;28;20955;-83
2022/10/07 11:59:57;;;;;;;3.40;1.60;;;19.50;72.00;;;;;;4992015;28;20462;-83
2022/10/07 12:02:29;;;;;;;5.03;2.10;;;19.50;71.60;;;;;;5002334;28;20536;-82
2022/10/07 12:04:58;;;;;;;4.57;1.33;;;19.50;72.30;;;;;;5024844;28;20536;-84
2022/10/07 12:08:01;;;;;;;4.97;1.70;;;19.60;71.30;;;;;;5008439;28;20486;-82
2022/10/07 12:10:48;;;;;;;7.83;2.20;;;19.70;70.50;;;;;;4998340;28;21063;-83
2022/10/07 12:13:39;;;;;;;4.30;1.60;;;19.60;71.00;;;;;;4999153;28;20473;-82
2022/10/07 12:17:16;;;;;;;6.30;1.70;;;19.60;70.90;;;;;;5013091;28;20996;-84
2022/10/07 12:20:45;;;;;;;4.17;1.60;;;21.00;64.30;;;;;;5005938;28;20442;-84
2022/10/07 12:23:44;;;;;;;3.57;1.60;;;21.50;61.00;;;;;;5006905;28;20546;-85
2022/10/07 12:26:38;;;;;;;4.33;1.30;;;21.90;60.10;;;;;;5014817;28;20516;-84
2022/10/07 12:29:36;;;;;;;4.00;1.70;;;22.10;58.50;;;;;;5007709;28;20451;-82
2022/10/07 12:32:47;;;;;;;4.87;1.90;;;22.50;57.70;;;;;;5001080;28;20479;-83
2022/10/07 12:35:33;;;;;;;4.17;1.57;;;22.40;58.00;;;;;;4999793;28;20470;-82
2022/10/07 12:38:15;;;;;;;4.20;1.33;;;22.90;56.30;;;;;;5005492;28;20468;-83
2022/10/07 12:41:05;;;;;;;5.43;1.60;;;23.00;55.50;;;;;;5004721;28;20931;-82
2022/10/07 12:44:05;;;;;;;3.13;1.70;;;22.90;54.60;;;;;;5003223;28;20446;-83
2022/10/07 12:46:50;;;;;;;3.97;1.43;;;22.90;54.80;;;;;;4998484;28;20456;-84
2022/10/07 12:49:48;;;;;;;5.90;1.60;;;22.40;55.20;;;;;;5005201;28;20450;-83
2022/10/07 12:52:53;;;;;;;7.80;2.17;;;22.70;55.40;;;;;;5016870;28;20458;-84
2022/10/07 12:55:43;;;;;;;4.57;1.57;;;23.20;54.90;;;;;;4998510;28;20470;-84
2022/10/07 13:02:01;;;;;;;5.97;1.90;;;23.60;53.60;;;;;;5024569;28;20450;-83
2022/10/07 13:05:31;;;;;;;3.47;1.90;;;23.50;53.90;;;;;;5016045;28;20503;-82
2022/10/07 13:08:33;;;;;;;5.60;1.80;;;23.00;55.10;;;;;;5017325;28;20449;-83
2022/10/07 13:11:17;;;;;;;8.23;2.10;;;23.50;54.90;;;;;;4994381;28;20478;-82
2022/10/07 13:14:12;;;;;;;4.03;2.17;;;23.40;54.60;;;;;;5005753;28;20447;-84
2022/10/07 13:17:01;;;;;;;5.73;1.57;;;23.40;54.50;;;;;;5005534;28;20478;-84
2022/10/07 13:20:04;;;;;;;2.60;1.20;;;23.70;53.80;;;;;;5000395;28;20470;-83
2022/10/07 13:22:33;;;;;;;6.80;2.27;;;23.40;52.70;;;;;;5003702;28;20514;-85
2022/10/07 13:25:16;;;;;;;5.93;1.67;;;23.20;53.40;;;;;;5005671;28;20473;-83
2022/10/07 13:27:57;;;;;;;5.13;1.60;;;23.10;53.50;;;;;;5023177;28;20454;-83
2022/10/07 13:30:46;;;;;;;2.93;1.33;;;23.20;54.20;;;;;;5009771;28;20481;-84
2022/10/07 13:33:30;;;;;;;2.93;2.00;;;23.00;52.80;;;;;;5021653;28;20447;-84
2022/10/07 13:36:14;;;;;;;2.80;1.40;;;22.80;52.10;;;;;;5023773;28;20529;-83
2022/10/07 13:38:46;;;;;;;5.03;1.53;;;23.30;51.60;;;;;;5011152;28;20465;-83
2022/10/07 13:41:29;;;;;;;3.47;1.23;;;23.00;52.20;;;;;;5003429;28;20986;-83
2022/10/07 13:44:05;;;;;;;3.37;1.60;;;23.00;52.70;;;;;;5007026;28;20450;-83
2022/10/07 13:46:39;;;;;;;9.10;2.60;;;23.10;52.20;;;;;;5021660;28;20446;-83
2022/10/07 13:49:22;;;;;;;4.70;1.97;;;22.80;52.80;;;;;;5009722;28;20462;-81